createdAt,value
2019-03-16T00:00:40.760Z,68.14
2019-03-16T00:03:09.070Z,68.09
2019-03-16T00:05:36.145Z,68.03
2019-03-16T00:08:03.576Z,68.06
2019-03-16T00:10:30.730Z,67.92
2019-03-16T00:12:58.037Z,67.85
2019-03-16T00:15:25.163Z,67.62
2019-03-16T00:17:52.352Z,67.78
2019-03-16T00:20:19.430Z,67.86
2019-03-16T00:22:46.939Z,68.17
2019-03-16T00:25:14.332Z,68.24
2019-03-16T00:27:41.380Z,68.29
2019-03-16T00:30:08.925Z,67.93
2019-03-16T00:32:36.133Z,67.81
2019-03-16T00:35:03.517Z,67.96
2019-03-16T00:37:30.752Z,67.73
2019-03-16T00:39:58.907Z,67.79
2019-03-16T00:42:26.074Z,67.61
2019-03-16T00:44:53.485Z,67.53
2019-03-16T00:47:21.102Z,67.55
2019-03-16T00:49:48.233Z,67.61
2019-03-16T00:52:15.355Z,67.49
2019-03-16T00:54:42.448Z,67.48
2019-03-16T00:57:11.268Z,67.40
2019-03-16T00:59:38.576Z,67.51
2019-03-16T01:02:06.816Z,67.63
2019-03-16T01:04:33.966Z,67.41
2019-03-16T01:07:01.025Z,67.80
2019-03-16T01:09:28.080Z,67.68
2019-03-16T01:11:55.138Z,67.49
2019-03-16T01:14:22.204Z,67.51
2019-03-16T01:16:49.312Z,67.39
2019-03-16T01:19:16.414Z,67.62
2019-03-16T01:21:43.546Z,67.45
2019-03-16T01:24:10.602Z,66.77
2019-03-16T01:26:37.749Z,66.96
2019-03-16T01:29:05.136Z,67.04
2019-03-16T01:31:32.207Z,67.18
2019-03-16T01:33:59.357Z,67.29
2019-03-16T01:36:26.780Z,67.43
2019-03-16T01:38:55.060Z,67.13
2019-03-16T01:41:22.105Z,66.91
2019-03-16T01:43:49.361Z,67.05
2019-03-16T01:46:16.415Z,67.01
2019-03-16T01:48:43.451Z,67.15
2019-03-16T01:51:10.966Z,67.25
2019-03-16T01:53:38.053Z,67.30
2019-03-16T01:56:05.627Z,67.05
2019-03-16T01:58:32.678Z,67.33
2019-03-16T02:00:59.755Z,68.29
2019-03-16T02:03:26.778Z,69.22
2019-03-16T02:05:55.908Z,69.74
2019-03-16T02:08:22.981Z,70.08
2019-03-16T02:10:50.087Z,70.27
2019-03-16T02:13:17.725Z,70.02
2019-03-16T02:15:44.769Z,70.05
2019-03-16T02:18:12.928Z,69.91
2019-03-16T02:20:40.514Z,69.81
2019-03-16T02:23:07.756Z,69.81
2019-03-16T02:25:34.779Z,69.79
2019-03-16T02:28:01.887Z,69.29
2019-03-16T02:30:29.099Z,69.50
2019-03-16T02:33:11.582Z,68.88
2019-03-16T02:35:25.166Z,68.96
2019-03-16T02:37:52.249Z,69.07
2019-03-16T02:40:19.587Z,68.91
2019-03-16T02:42:46.675Z,69.31
2019-03-16T02:45:13.720Z,70.19
2019-03-16T02:47:41.012Z,72.46
2019-03-16T02:50:08.550Z,73.63
2019-03-16T02:52:35.588Z,74.22
2019-03-16T02:55:03.590Z,74.71
2019-03-16T02:57:30.621Z,75.58
2019-03-16T02:59:57.721Z,77.02
2019-03-16T03:02:24.887Z,77.79
2019-03-16T03:04:51.922Z,78.12
2019-03-16T03:07:18.976Z,78.60
2019-03-16T03:09:45.988Z,78.72
2019-03-16T03:12:13.069Z,78.32
2019-03-16T03:14:41.754Z,76.79
2019-03-16T03:17:08.777Z,77.25
2019-03-16T03:19:35.805Z,77.80
2019-03-16T03:22:02.871Z,78.32
2019-03-16T03:24:31.039Z,78.90
2019-03-16T03:26:58.643Z,79.33
2019-03-16T03:29:25.705Z,79.08
2019-03-16T03:31:52.824Z,79.08
2019-03-16T03:34:21.122Z,79.39
2019-03-16T03:36:48.200Z,79.44
2019-03-16T03:39:15.254Z,79.65
2019-03-16T03:41:42.299Z,79.45
2019-03-16T03:44:09.441Z,78.68
2019-03-16T03:46:37.669Z,78.52
2019-03-16T03:49:05.416Z,79.21
2019-03-16T03:51:32.556Z,79.23
2019-03-16T03:53:59.689Z,79.46
2019-03-16T03:56:26.721Z,79.66
2019-03-16T03:58:53.982Z,79.63
2019-03-16T04:01:22.818Z,79.48
2019-03-16T04:03:49.854Z,79.58
2019-03-16T04:06:16.923Z,79.64
2019-03-16T04:08:44.063Z,79.42
2019-03-16T04:11:11.540Z,79.00
2019-03-16T04:13:38.640Z,78.81
2019-03-16T04:16:05.691Z,78.08
2019-03-16T04:18:33.716Z,77.44
2019-03-16T04:21:00.801Z,76.99
2019-03-16T04:23:27.816Z,77.73
2019-03-16T04:25:54.871Z,77.72
2019-03-16T04:28:21.959Z,76.28
2019-03-16T04:30:49.023Z,74.28
2019-03-16T04:33:16.046Z,72.93
2019-03-16T04:35:43.073Z,72.40
2019-03-16T04:38:10.134Z,71.97
2019-03-16T04:40:38.956Z,71.38
2019-03-16T04:43:06.019Z,71.64
2019-03-16T04:45:34.465Z,71.22
2019-03-16T04:48:01.499Z,71.14
2019-03-16T04:50:28.866Z,71.54
2019-03-16T04:52:56.372Z,70.99
2019-03-16T04:55:23.493Z,71.84
2019-03-16T04:57:50.568Z,71.80
2019-03-16T05:00:18.005Z,72.33
2019-03-16T05:02:47.036Z,72.96
2019-03-16T05:05:17.812Z,73.70
2019-03-16T05:07:45.250Z,73.77
2019-03-16T05:10:12.277Z,72.99
2019-03-16T05:12:39.301Z,72.18
2019-03-16T05:15:06.990Z,71.71
2019-03-16T05:17:34.535Z,71.77
2019-03-16T05:20:01.659Z,71.51
2019-03-16T05:22:28.743Z,71.09
2019-03-16T05:24:55.779Z,71.00
2019-03-16T05:27:22.858Z,70.88
2019-03-16T05:29:51.930Z,70.51
2019-03-16T05:32:18.987Z,70.43
2019-03-16T05:34:56.441Z,70.53
2019-03-16T05:37:16.855Z,70.22
2019-03-16T05:39:43.874Z,69.96
2019-03-16T05:42:10.947Z,70.03
2019-03-16T05:44:38.963Z,69.56
2019-03-16T05:47:06.064Z,69.68
2019-03-16T05:49:33.141Z,69.43
2019-03-16T05:52:00.469Z,69.43
2019-03-16T05:54:27.542Z,69.38
2019-03-16T05:56:54.573Z,69.06
2019-03-16T05:59:21.730Z,68.68
2019-03-16T06:01:48.774Z,68.89
2019-03-16T06:04:15.866Z,68.51
2019-03-16T06:06:43.322Z,68.75
2019-03-16T06:09:12.171Z,68.23
2019-03-16T06:11:39.248Z,67.84
2019-03-16T06:14:06.627Z,67.64
2019-03-16T06:16:33.660Z,68.13
2019-03-16T06:19:00.761Z,67.94
2019-03-16T06:21:27.791Z,68.15
2019-03-16T06:23:55.198Z,67.98
2019-03-16T06:26:22.563Z,68.19
2019-03-16T06:28:49.626Z,67.88
2019-03-16T06:31:16.943Z,67.68
2019-03-16T06:33:44.012Z,67.42
2019-03-16T06:36:11.277Z,67.53
2019-03-16T06:38:38.722Z,66.89
2019-03-16T06:41:05.997Z,67.34
2019-03-16T06:43:33.020Z,67.70
2019-03-16T06:46:00.463Z,67.94
2019-03-16T06:48:27.502Z,68.37
2019-03-16T06:50:54.840Z,68.99
2019-03-16T06:53:22.366Z,69.55
2019-03-16T06:55:52.781Z,69.82
2019-03-16T06:58:19.885Z,69.50
2019-03-16T07:00:46.964Z,69.88
2019-03-16T07:03:14.305Z,69.94
2019-03-16T07:05:43.355Z,70.58
2019-03-16T07:08:10.498Z,70.75
2019-03-16T07:10:38.037Z,71.05
2019-03-16T07:13:06.202Z,70.97
2019-03-16T07:15:40.693Z,70.82
2019-03-16T07:18:08.835Z,70.50
2019-03-16T07:20:35.910Z,70.49
2019-03-16T07:23:03.036Z,70.21
2019-03-16T07:25:31.253Z,69.89
2019-03-16T07:27:58.419Z,69.80
2019-03-16T07:30:25.519Z,69.54
2019-03-16T07:32:52.901Z,69.03
2019-03-16T07:35:19.939Z,68.99
2019-03-16T07:37:47.199Z,69.07
2019-03-16T07:40:14.770Z,69.20
2019-03-16T07:42:41.824Z,68.62
2019-03-16T07:45:09.166Z,68.71
2019-03-16T07:47:36.801Z,68.95
2019-03-16T07:50:04.570Z,68.35
2019-03-16T07:52:31.660Z,67.56
2019-03-16T07:55:01.783Z,67.55
2019-03-16T07:57:39.972Z,66.93
2019-03-16T08:00:01.950Z,66.52
2019-03-16T08:02:29.190Z,66.22
2019-03-16T08:04:56.373Z,66.03
2019-03-16T08:07:23.455Z,65.69
2019-03-16T08:09:50.555Z,64.62
2019-03-16T08:12:19.487Z,64.27
2019-03-16T08:14:46.542Z,64.34
2019-03-16T08:17:13.632Z,63.86
2019-03-16T08:19:41.204Z,63.37
2019-03-16T08:22:08.291Z,63.12
2019-03-16T08:24:35.345Z,63.08
2019-03-16T08:27:02.987Z,62.91
2019-03-16T08:29:30.144Z,63.32
2019-03-16T08:31:57.220Z,62.63
2019-03-16T08:34:24.600Z,62.91
2019-03-16T08:36:52.162Z,62.87
2019-03-16T08:39:19.190Z,62.28
2019-03-16T08:41:46.712Z,62.56
2019-03-16T08:44:13.774Z,62.45
2019-03-16T08:46:40.832Z,62.09
2019-03-16T08:49:07.900Z,61.30
2019-03-16T08:51:35.062Z,61.77
2019-03-16T08:54:02.297Z,61.85
2019-03-16T08:56:29.333Z,61.00
2019-03-16T08:58:56.374Z,60.57
2019-03-16T09:01:23.437Z,61.09
2019-03-16T09:03:50.886Z,61.46
2019-03-16T09:06:18.215Z,60.89
2019-03-16T09:08:45.265Z,60.33
2019-03-16T09:11:12.711Z,60.69
2019-03-16T09:13:39.800Z,60.48
2019-03-16T09:16:07.027Z,61.02
2019-03-16T09:18:34.088Z,60.52
2019-03-16T09:21:01.276Z,60.04
2019-03-16T09:23:28.328Z,60.09
2019-03-16T09:25:57.632Z,59.83
2019-03-16T09:28:25.990Z,59.93
2019-03-16T09:30:53.212Z,60.37
2019-03-16T09:33:20.725Z,60.22
2019-03-16T09:35:47.851Z,59.70
2019-03-16T09:38:15.220Z,59.76
2019-03-16T09:40:42.489Z,60.13
2019-03-16T09:43:09.548Z,59.46
2019-03-16T09:45:36.609Z,59.16
2019-03-16T09:48:03.783Z,58.62
2019-03-16T09:50:30.849Z,58.41
2019-03-16T09:52:57.936Z,58.47
2019-03-16T09:55:25.195Z,57.43
2019-03-16T09:57:52.232Z,57.51
2019-03-16T10:00:19.305Z,56.89
2019-03-16T10:02:46.783Z,56.82
2019-03-16T10:05:14.018Z,56.29
2019-03-16T10:07:41.099Z,57.09
2019-03-16T10:10:11.498Z,57.77
2019-03-16T10:12:38.535Z,57.78
2019-03-16T10:15:05.919Z,57.88
2019-03-16T10:17:33.091Z,57.83
2019-03-16T10:20:01.515Z,57.78
2019-03-16T10:22:30.066Z,57.33
2019-03-16T10:24:57.404Z,58.28
2019-03-16T10:27:24.981Z,58.60
2019-03-16T10:29:52.059Z,57.81
2019-03-16T10:32:19.469Z,57.69
2019-03-16T10:34:46.917Z,57.61
2019-03-16T10:37:15.166Z,57.49
2019-03-16T10:39:42.257Z,57.54
2019-03-16T10:42:09.714Z,56.59
2019-03-16T10:44:36.776Z,56.51
2019-03-16T10:47:04.023Z,55.99
2019-03-16T10:49:31.061Z,57.18
2019-03-16T10:51:58.088Z,56.28
2019-03-16T10:54:25.209Z,56.79
2019-03-16T10:56:52.585Z,57.16
2019-03-16T10:59:19.656Z,57.06
2019-03-16T11:01:48.976Z,57.46
2019-03-16T11:04:17.258Z,57.04
2019-03-16T11:06:45.029Z,57.50
2019-03-16T11:09:14.184Z,57.31
2019-03-16T11:11:41.290Z,56.61
2019-03-16T11:14:08.370Z,56.10
2019-03-16T11:16:58.310Z,55.59
2019-03-16T11:19:28.459Z,55.50
2019-03-16T11:21:57.138Z,55.42
2019-03-16T11:24:26.562Z,54.72
2019-03-16T11:27:17.472Z,55.33
2019-03-16T11:29:45.802Z,56.88
2019-03-16T11:32:13.928Z,57.15
2019-03-16T11:34:48.331Z,57.19
2019-03-16T11:37:40.071Z,56.62
2019-03-16T11:40:10.284Z,56.31
2019-03-16T11:42:43.390Z,57.12
2019-03-16T11:45:21.488Z,58.88
2019-03-16T11:47:50.665Z,56.74
2019-03-16T11:50:22.444Z,55.36
2019-03-16T11:52:53.526Z,55.12
2019-03-16T11:55:22.395Z,53.85
2019-03-16T11:57:52.706Z,49.16
2019-03-16T12:00:20.672Z,52.06
2019-03-16T12:02:52.784Z,50.28
2019-03-16T12:05:30.166Z,48.53
2019-03-16T12:07:58.356Z,49.58
2019-03-16T12:10:26.531Z,49.52
2019-03-16T12:12:56.001Z,48.43
2019-03-16T12:15:28.234Z,46.99
2019-03-16T12:17:55.661Z,48.17
2019-03-16T12:20:24.145Z,49.53
2019-03-16T12:22:55.769Z,50.52
2019-03-16T12:25:27.130Z,50.92
2019-03-16T12:27:56.758Z,49.74
2019-03-16T12:30:37.259Z,50.90
2019-03-16T12:33:05.515Z,50.92
2019-03-16T12:35:32.991Z,51.63
2019-03-16T12:38:08.064Z,51.92
2019-03-16T12:40:40.910Z,53.12
2019-03-16T12:43:08.311Z,53.16
2019-03-16T12:45:38.337Z,53.77
2019-03-16T12:48:05.418Z,54.09
2019-03-16T12:50:34.581Z,53.57
2019-03-16T12:53:02.682Z,53.82
2019-03-16T12:55:30.246Z,53.92
2019-03-16T12:57:58.122Z,54.71
2019-03-16T13:00:25.661Z,55.96
2019-03-16T13:02:52.730Z,56.99
2019-03-16T13:05:19.837Z,53.54
2019-03-16T13:07:47.326Z,53.25
2019-03-16T13:10:14.652Z,53.18
2019-03-16T13:12:41.944Z,53.26
2019-03-16T13:15:09.902Z,52.76
2019-03-16T13:17:37.219Z,52.56
2019-03-16T13:20:04.798Z,51.94
2019-03-16T13:22:33.862Z,51.63
2019-03-16T13:25:00.941Z,51.08
2019-03-16T13:27:28.243Z,51.85
2019-03-16T13:29:59.184Z,51.86
2019-03-16T13:32:24.612Z,51.33
2019-03-16T13:34:53.602Z,52.86
2019-03-16T13:37:21.419Z,52.81
2019-03-16T13:39:49.093Z,51.99
2019-03-16T13:42:16.181Z,52.09
2019-03-16T13:44:43.339Z,52.08
2019-03-16T13:47:10.394Z,52.16
2019-03-16T13:49:37.481Z,52.71
2019-03-16T13:52:06.071Z,53.16
2019-03-16T13:54:33.446Z,52.67
2019-03-16T13:57:01.462Z,53.30
2019-03-16T13:59:28.898Z,52.56
2019-03-16T14:01:55.959Z,52.74
2019-03-16T14:04:23.121Z,52.62
2019-03-16T14:06:50.635Z,53.02
2019-03-16T14:09:18.313Z,52.54
2019-03-16T14:11:45.380Z,52.95
2019-03-16T14:14:14.964Z,52.95
2019-03-16T14:16:42.301Z,52.49
2019-03-16T14:19:09.362Z,52.81
2019-03-16T14:21:36.911Z,53.51
2019-03-16T14:24:04.258Z,53.30
2019-03-16T14:26:32.927Z,53.43
2019-03-16T14:29:00.177Z,54.31
2019-03-16T14:31:27.657Z,54.81
2019-03-16T14:33:54.693Z,54.70
2019-03-16T14:36:22.206Z,54.72
2019-03-16T14:38:49.455Z,54.60
2019-03-16T14:41:16.528Z,54.79
2019-03-16T14:43:43.588Z,54.66
2019-03-16T14:46:10.654Z,54.75
2019-03-16T14:48:37.713Z,54.13
2019-03-16T14:51:04.796Z,54.94
2019-03-16T14:53:32.251Z,54.71
2019-03-16T14:55:59.409Z,54.35
2019-03-16T14:58:26.569Z,53.99
2019-03-16T15:00:53.654Z,52.83
2019-03-16T15:03:20.921Z,51.97
2019-03-16T15:05:48.007Z,52.45
2019-03-16T15:08:15.419Z,51.75
2019-03-16T15:10:44.869Z,52.13
2019-03-16T15:13:11.966Z,52.44
2019-03-16T15:15:39.186Z,52.91
2019-03-16T15:18:06.452Z,52.51
2019-03-16T15:20:35.073Z,52.64
2019-03-16T15:23:04.464Z,52.57
2019-03-16T15:25:31.583Z,52.93
2019-03-16T15:27:58.764Z,53.23
2019-03-16T15:30:25.869Z,52.80
2019-03-16T15:32:53.050Z,52.82
2019-03-16T15:35:20.302Z,53.24
2019-03-16T15:37:47.377Z,53.43
2019-03-16T15:40:14.648Z,54.09
2019-03-16T15:42:42.269Z,53.57
2019-03-16T15:45:12.112Z,53.69
2019-03-16T15:47:39.220Z,53.22
2019-03-16T15:50:06.619Z,53.43
2019-03-16T15:52:33.920Z,53.45
2019-03-16T15:55:01.354Z,53.78
2019-03-16T15:57:28.692Z,54.35
2019-03-16T15:59:55.759Z,54.27
2019-03-16T16:02:24.643Z,54.18
2019-03-16T16:04:51.765Z,54.66
2019-03-16T16:07:19.143Z,54.81
2019-03-16T16:09:48.787Z,54.96
2019-03-16T16:12:15.944Z,54.56
2019-03-16T16:14:42.987Z,54.60
2019-03-16T16:17:11.175Z,55.02
2019-03-16T16:19:38.258Z,54.81
2019-03-16T16:22:05.381Z,54.82
2019-03-16T16:24:34.608Z,54.56
2019-03-16T16:27:01.740Z,54.55
2019-03-16T16:29:28.936Z,54.17
2019-03-16T16:31:57.658Z,53.69
2019-03-16T16:34:27.275Z,53.90
2019-03-16T16:36:54.276Z,53.91
2019-03-16T16:39:21.589Z,53.73
2019-03-16T16:41:48.697Z,53.52
2019-03-16T16:44:15.747Z,53.46
2019-03-16T16:46:43.828Z,53.12
2019-03-16T16:49:10.986Z,53.41
2019-03-16T16:51:38.177Z,53.37
2019-03-16T16:54:05.261Z,53.41
2019-03-16T16:56:32.467Z,53.14
2019-03-16T16:58:59.750Z,53.04
2019-03-16T17:01:29.576Z,52.97
2019-03-16T17:03:57.518Z,53.25
2019-03-16T17:06:24.961Z,53.28
2019-03-16T17:08:52.025Z,53.28
2019-03-16T17:11:20.286Z,53.28
2019-03-16T17:13:48.007Z,53.41
2019-03-16T17:16:15.222Z,53.59
2019-03-16T17:18:42.519Z,53.89
2019-03-16T17:21:10.014Z,53.90
2019-03-16T17:23:37.078Z,54.17
2019-03-16T17:26:04.190Z,54.00
2019-03-16T17:28:32.991Z,54.22
2019-03-16T17:31:02.342Z,54.48
2019-03-16T17:33:29.435Z,54.65
2019-03-16T17:35:58.544Z,54.86
2019-03-16T17:38:25.660Z,54.82
2019-03-16T17:40:53.238Z,55.14
2019-03-16T17:43:20.371Z,55.30
2019-03-16T17:45:47.603Z,54.94
2019-03-16T17:48:16.190Z,54.78
2019-03-16T17:50:43.246Z,54.26
2019-03-16T17:53:10.695Z,54.57
2019-03-16T17:55:38.008Z,54.27
2019-03-16T17:58:05.467Z,54.24
2019-03-16T18:00:32.497Z,54.04
2019-03-16T18:02:59.613Z,53.82
2019-03-16T18:05:26.714Z,53.63
2019-03-16T18:07:54.017Z,53.48
2019-03-16T18:10:21.611Z,53.37
2019-03-16T18:12:48.660Z,53.47
2019-03-16T18:15:16.035Z,53.18
2019-03-16T18:17:43.121Z,53.29
2019-03-16T18:20:11.078Z,53.25
2019-03-16T18:22:38.161Z,53.10
2019-03-16T18:25:06.436Z,53.18
2019-03-16T18:27:33.607Z,53.64
2019-03-16T18:30:01.203Z,53.66
2019-03-16T18:32:28.317Z,53.69
2019-03-16T18:34:55.365Z,53.94
2019-03-16T18:37:22.466Z,54.12
2019-03-16T18:39:49.779Z,54.26
2019-03-16T18:42:16.879Z,54.66
2019-03-16T18:44:43.917Z,55.25
2019-03-16T18:47:11.849Z,55.56
2019-03-16T18:49:38.941Z,56.06
2019-03-16T18:52:06.046Z,56.63
2019-03-16T18:54:33.430Z,56.98
2019-03-16T18:57:00.847Z,57.45
2019-03-16T18:59:27.905Z,57.99
2019-03-16T19:01:54.966Z,58.26
2019-03-16T19:04:22.150Z,58.55
2019-03-16T19:06:49.244Z,58.92
2019-03-16T19:09:16.415Z,58.89
2019-03-16T19:11:43.963Z,58.90
2019-03-16T19:14:11.956Z,58.89
2019-03-16T19:16:39.037Z,58.93
2019-03-16T19:19:06.521Z,59.01
2019-03-16T19:21:33.623Z,58.91
2019-03-16T19:24:00.742Z,59.29
2019-03-16T19:26:30.118Z,59.42
2019-03-16T19:28:58.962Z,59.17
2019-03-16T19:31:26.063Z,58.82
2019-03-16T19:33:53.560Z,58.65
2019-03-16T19:36:20.834Z,58.61
2019-03-16T19:38:47.996Z,57.89
2019-03-16T19:41:16.929Z,57.78
2019-03-16T19:43:44.483Z,57.79
2019-03-16T19:46:11.574Z,57.90
2019-03-16T19:48:38.836Z,57.73
2019-03-16T19:51:06.401Z,57.72
2019-03-16T19:53:33.472Z,58.08
2019-03-16T19:56:00.771Z,58.54
2019-03-16T19:58:27.894Z,58.93
2019-03-16T20:00:55.028Z,59.21
2019-03-16T20:03:22.148Z,59.34
2019-03-16T20:05:49.987Z,59.41
2019-03-16T20:08:17.185Z,59.16
2019-03-16T20:10:46.859Z,58.97
2019-03-16T20:13:15.107Z,59.16
2019-03-16T20:15:44.028Z,59.04
2019-03-16T20:18:11.262Z,59.07
2019-03-16T20:20:38.699Z,58.87
2019-03-16T20:23:07.755Z,58.99
2019-03-16T20:25:34.917Z,59.45
2019-03-16T20:28:02.346Z,60.03
2019-03-16T20:30:30.724Z,60.53
2019-03-16T20:33:03.821Z,60.73
2019-03-16T20:35:29.874Z,61.12
2019-03-16T20:37:57.080Z,62.02
2019-03-16T20:40:25.106Z,63.11
2019-03-16T20:42:52.499Z,63.31
2019-03-16T20:45:19.902Z,63.27
2019-03-16T20:47:49.010Z,63.30
2019-03-16T20:50:16.504Z,63.59
2019-03-16T20:52:46.073Z,63.74
2019-03-16T20:55:13.394Z,63.88
2019-03-16T20:57:40.835Z,63.95
2019-03-16T21:00:08.800Z,64.02
2019-03-16T21:02:36.221Z,64.33
2019-03-16T21:05:05.556Z,64.17
2019-03-16T21:07:34.219Z,64.23
2019-03-16T21:10:01.766Z,64.25
2019-03-16T21:12:31.361Z,64.47
2019-03-16T21:14:58.706Z,64.62
2019-03-16T21:17:26.895Z,64.79
2019-03-16T21:19:54.758Z,65.07
2019-03-16T21:22:34.634Z,64.84
2019-03-16T21:24:52.645Z,64.90
2019-03-16T21:27:20.192Z,64.56
2019-03-16T21:29:50.512Z,64.22
2019-03-16T21:32:21.393Z,64.20
2019-03-16T21:34:52.937Z,64.31
2019-03-16T21:37:22.405Z,64.35
2019-03-16T21:39:52.701Z,64.49
2019-03-16T21:42:25.911Z,64.66
2019-03-16T21:44:58.299Z,64.64
2019-03-16T21:47:26.940Z,64.65
2019-03-16T21:49:59.046Z,64.44
2019-03-16T21:52:27.005Z,64.37
2019-03-16T21:55:00.505Z,64.50
2019-03-16T21:57:33.091Z,64.45
2019-03-16T22:00:06.534Z,64.74
2019-03-16T22:02:44.407Z,64.89
2019-03-16T22:05:14.246Z,64.95
2019-03-16T22:07:49.390Z,65.12
2019-03-16T22:10:19.993Z,64.89
2019-03-16T22:12:50.574Z,65.12
2019-03-16T22:15:20.364Z,65.12
2019-03-16T22:17:48.109Z,65.05
2019-03-16T22:20:19.882Z,64.82
2019-03-16T22:22:48.278Z,64.76
2019-03-16T22:25:15.639Z,64.51
2019-03-16T22:27:47.177Z,64.64
2019-03-16T22:30:16.871Z,65.11
2019-03-16T22:32:45.597Z,65.18
2019-03-16T22:35:14.104Z,65.48
2019-03-16T22:37:41.623Z,65.39
2019-03-16T22:40:09.417Z,65.44
2019-03-16T22:42:39.206Z,65.41
2019-03-16T22:45:11.246Z,65.29
2019-03-16T22:47:38.890Z,65.18
2019-03-16T22:50:06.732Z,65.46
2019-03-16T22:52:34.127Z,65.52
2019-03-16T22:55:02.669Z,65.69
2019-03-16T22:57:29.802Z,65.88
2019-03-16T22:59:56.995Z,65.99
2019-03-16T23:02:24.080Z,66.08
2019-03-16T23:04:51.302Z,66.00
2019-03-16T23:07:18.806Z,65.92
2019-03-16T23:09:45.847Z,65.99
2019-03-16T23:12:13.023Z,66.22
2019-03-16T23:14:40.118Z,66.17
2019-03-16T23:17:07.445Z,66.21
2019-03-16T23:19:34.886Z,66.05
2019-03-16T23:22:03.039Z,65.92
2019-03-16T23:24:30.050Z,65.80
2019-03-16T23:26:57.309Z,65.64
2019-03-16T23:29:24.559Z,65.64
2019-03-16T23:31:51.633Z,65.36
2019-03-16T23:34:19.657Z,65.29
2019-03-16T23:36:47.332Z,65.16
2019-03-16T23:39:14.438Z,65.12
2019-03-16T23:41:43.427Z,65.11
2019-03-16T23:44:10.902Z,65.05
2019-03-16T23:46:38.097Z,64.94
2019-03-16T23:49:05.181Z,64.49
2019-03-16T23:51:32.378Z,64.19
2019-03-16T23:53:59.439Z,64.02
2019-03-16T23:56:26.512Z,64.16
2019-03-16T23:58:54.020Z,64.12
